Allport, Pennsylvania
Current Conditions -  °F | °C
As of 8:54 PM on Friday 31 Oct 2014 (Local Time) from KFIG Reporting Station
Light Rain Light Rain  
Wind Chill:   Ceiling: 4500
Heat Index:   Visibility: 9mi
Dew Point:   Wind: 5mph
Humidity: 93%   Direction: 360°N
Pressure: 29.89"   Gusts: NA
Location:  40.96°N, 78.2°W
Report Text: KFIG 010054Z AUTO 36004KT 9SM -RA OVC045 04/03 A2989 RMK AO2 SLP132 P0001 T00440033
Loading
Personal Weather Stations






























Interactive Weather Map
Tropical Storm Tracking
New forecast layout! Learn more

10-Day Weather Forecast

Advertisements
Track Severe Weather on mobile